Time,TemperatureF,DewpointF,PressureIn,WindDirection,WindDirectionDegrees,WindSpeedMPH,WindSpeedGustMPH,Humidity,HourlyPrecipIn,Conditions,Clouds,dailyrainin,SoftwareType,DateUTC
2013-09-11 00:14:00,76.0,72.0,30.06,SE,132,0.0,0.0,86,0.00,,,0.00,,2013-09-11 04:14:00,
2013-09-11 00:24:00,76.0,72.0,30.06,WNW,284,0.0,0.0,87,0.00,,,0.00,,2013-09-11 04:24:00,
2013-09-11 00:44:00,75.0,71.0,30.06,SSE,162,0.0,0.0,88,0.00,,,0.00,,2013-09-11 04:44:00,
2013-09-11 00:54:00,75.0,72.0,30.06,SSE,150,0.0,0.0,89,0.00,,,0.00,,2013-09-11 04:54:00,
2013-09-11 01:13:00,75.0,72.0,30.06,WNW,297,0.0,0.0,90,0.00,,,0.00,,2013-09-11 05:13:00,
2013-09-11 01:23:00,75.0,72.0,30.06,West,269,0.0,0.0,91,0.00,,,0.00,,2013-09-11 05:23:00,
2013-09-11 01:43:00,74.0,72.0,30.06,SSW,198,0.0,0.0,92,0.00,,,0.00,,2013-09-11 05:43:00,
2013-09-11 01:53:00,74.0,72.0,30.06,South,175,0.0,0.0,92,0.00,,,0.00,,2013-09-11 05:53:00,
2013-09-11 02:12:00,74.0,72.0,30.05,SE,134,0.0,0.0,92,0.00,,,0.00,,2013-09-11 06:12:00,
2013-09-11 02:22:00,74.0,72.0,30.05,WNW,289,0.0,0.0,93,0.00,,,0.00,,2013-09-11 06:22:00,
2013-09-11 02:42:00,74.0,72.0,30.05,ESE,113,0.0,0.0,93,0.00,,,0.00,,2013-09-11 06:42:00,
2013-09-11 02:52:00,74.0,72.0,30.06,NW,306,0.0,0.0,93,0.00,,,0.00,,2013-09-11 06:52:00,
2013-09-11 03:12:00,73.0,71.0,30.05,WNW,296,0.0,0.0,94,0.00,,,0.00,,2013-09-11 07:12:00,
2013-09-11 03:24:00,73.0,71.0,30.05,WSW,249,0.0,0.0,94,0.00,,,0.00,,2013-09-11 07:24:00,
2013-09-11 03:42:00,73.0,71.0,30.05,West,281,0.0,0.0,95,0.00,,,0.00,,2013-09-11 07:42:00,
2013-09-11 03:52:00,73.0,71.0,30.04,West,277,0.0,0.0,95,0.00,,,0.00,,2013-09-11 07:52:00,
2013-09-11 04:12:00,73.0,71.0,30.05,NW,304,0.0,0.0,95,0.00,,,0.00,,2013-09-11 08:12:00,
2013-09-11 04:22:00,73.0,72.0,30.04,WNW,296,0.0,0.0,96,0.00,,,0.00,,2013-09-11 08:22:00,
2013-09-11 04:42:00,73.0,72.0,30.03,NW,310,0.0,0.0,96,0.00,,,0.00,,2013-09-11 08:42:00,
2013-09-11 04:52:00,73.0,72.0,30.04,WNW,283,0.0,0.0,96,0.00,,,0.00,,2013-09-11 08:52:00,
2013-09-11 05:12:00,73.0,72.0,30.04,WNW,297,0.0,0.0,96,0.00,,,0.00,,2013-09-11 09:12:00,
2013-09-11 05:22:00,73.0,72.0,30.04,West,259,0.0,0.0,96,0.00,,,0.00,,2013-09-11 09:22:00,
2013-09-11 05:43:00,72.0,71.0,30.04,WSW,249,0.0,0.0,96,0.00,,,0.00,,2013-09-11 09:43:00,
2013-09-11 05:53:00,73.0,72.0,30.04,WNW,290,0.0,0.0,96,0.00,,,0.00,,2013-09-11 09:53:00,
2013-09-11 06:13:00,72.0,71.0,30.04,WNW,283,0.0,0.0,96,0.00,,,0.00,,2013-09-11 10:13:00,
2013-09-11 06:23:00,72.0,71.0,30.04,WNW,297,0.0,0.0,97,0.00,,,0.00,,2013-09-11 10:23:00,
2013-09-11 06:43:00,72.0,71.0,30.04,SSW,198,0.0,0.0,97,0.00,,,0.00,,2013-09-11 10:43:00,
2013-09-11 06:53:00,72.0,71.0,30.05,SSE,162,0.0,0.0,97,0.00,,,0.00,,2013-09-11 10:53:00,
2013-09-11 07:12:00,72.0,71.0,30.06,West,270,0.0,0.0,97,0.00,,,0.00,,2013-09-11 11:12:00,
2013-09-11 07:22:00,72.0,71.0,30.05,WNW,303,0.0,0.0,97,0.00,,,0.00,,2013-09-11 11:22:00,
2013-09-11 07:52:00,72.0,71.0,30.06,WSW,243,0.0,0.0,97,0.00,,,0.00,,2013-09-11 11:52:00,
2013-09-11 08:11:00,72.0,71.0,30.06,SSW,200,0.0,0.0,97,0.00,,,0.00,,2013-09-11 12:11:00,
2013-09-11 08:22:00,72.0,71.0,30.06,SW,222,0.0,0.0,97,0.00,,,0.00,,2013-09-11 12:22:00,
2013-09-11 08:52:00,72.0,71.0,30.06,South,184,0.0,0.0,96,0.00,,,0.00,,2013-09-11 12:52:00,
2013-09-11 09:12:00,73.0,72.0,30.06,ENE,77,0.0,0.0,96,0.00,,,0.00,,2013-09-11 13:12:00,
2013-09-11 09:22:00,73.0,71.0,30.06,WNW,300,0.0,0.0,95,0.00,,,0.00,,2013-09-11 13:22:00,
2013-09-11 09:42:00,73.0,71.0,30.06,WNW,299,0.0,0.0,95,0.00,,,0.00,,2013-09-11 13:42:00,
2013-09-11 09:52:00,74.0,72.0,30.06,WNW,293,0.0,0.0,93,0.00,,,0.00,,2013-09-11 13:52:00,
2013-09-11 10:11:00,75.0,72.0,30.06,SW,235,0.0,0.0,90,0.00,,,0.00,,2013-09-11 14:11:00,
2013-09-11 10:22:00,76.0,72.0,30.06,WNW,285,0.0,0.0,88,0.00,,,0.00,,2013-09-11 14:22:00,
2013-09-11 10:42:00,76.0,72.0,30.05,WSW,240,0.0,0.0,87,0.00,,,0.00,,2013-09-11 14:42:00,
2013-09-11 10:52:00,77.0,72.0,30.05,NW,304,0.0,0.0,86,0.00,,,0.00,,2013-09-11 14:52:00,
2013-09-11 11:11:00,77.0,72.0,30.04,WNW,290,0.0,0.0,86,0.00,,,0.00,,2013-09-11 15:11:00,
2013-09-11 11:22:00,77.0,72.0,30.05,WNW,295,0.0,0.0,86,0.00,,,0.00,,2013-09-11 15:22:00,
2013-09-11 11:43:00,77.0,72.0,30.04,WNW,298,0.0,0.0,86,0.00,,,0.00,,2013-09-11 15:43:00,
2013-09-11 11:54:00,78.0,73.0,30.05,WNW,285,0.0,0.0,84,0.00,,,0.00,,2013-09-11 15:54:00,
2013-09-11 12:13:00,80.0,73.0,30.04,West,278,0.0,0.0,80,0.00,,,0.00,,2013-09-11 16:13:00,
2013-09-11 12:23:00,82.0,73.0,30.03,WNW,293,0.0,0.0,75,0.00,,,0.00,,2013-09-11 16:23:00,
2013-09-11 12:53:00,86.0,75.0,30.02,SE,143,0.0,0.0,69,0.00,,,0.00,,2013-09-11 16:53:00,
2013-09-11 13:12:00,86.0,73.0,30.02,NNE,25,0.0,0.0,66,0.00,,,0.00,,2013-09-11 17:12:00,
2013-09-11 13:23:00,87.0,73.0,30.02,WNW,295,0.0,0.0,63,0.00,,,0.00,,2013-09-11 17:23:00,
2013-09-11 13:52:00,89.0,73.0,30.00,South,173,0.0,0.0,59,0.00,,,0.00,,2013-09-11 17:52:00,
2013-09-11 14:12:00,89.0,72.0,29.99,SSE,158,0.0,0.0,58,0.00,,,0.00,,2013-09-11 18:12:00,
2013-09-11 14:22:00,87.0,71.0,29.97,North,1,0.0,0.0,59,0.00,,,0.00,,2013-09-11 18:22:00,
2013-09-11 14:52:00,84.0,70.0,29.96,WNW,283,0.0,0.0,63,0.00,,,0.00,,2013-09-11 18:52:00,
2013-09-11 15:12:00,83.0,71.0,29.97,SSE,161,0.0,0.0,68,0.00,,,0.00,,2013-09-11 19:12:00,
2013-09-11 16:22:00,69.0,65.0,29.95,South,169,0.0,3.0,88,0.01,,,0.07,,2013-09-11 20:22:00,
2013-09-11 16:42:00,69.0,65.0,29.97,WNW,294,3.0,6.0,86,0.00,,,0.07,,2013-09-11 20:42:00,
2013-09-11 16:52:00,70.0,66.0,29.98,WNW,300,5.0,10.0,86,0.00,,,0.07,,2013-09-11 20:52:00,
2013-09-11 17:12:00,70.0,66.0,29.99,NW,315,3.0,7.0,87,0.00,,,0.07,,2013-09-11 21:12:00,
2013-09-11 17:22:00,70.0,66.0,30.00,NW,309,1.0,6.0,88,0.00,,,0.07,,2013-09-11 21:22:00,
2013-09-11 17:44:00,70.0,66.0,30.00,WNW,300,0.0,4.0,87,0.00,,,0.07,,2013-09-11 21:44:00,
2013-09-11 17:54:00,69.0,66.0,29.99,SE,145,0.0,1.0,89,0.00,,,0.07,,2013-09-11 21:54:00,
2013-09-11 18:13:00,69.0,66.0,30.00,SSE,153,0.0,4.0,91,0.01,,,0.08,,2013-09-11 22:13:00,
2013-09-11 18:24:00,68.0,66.0,29.99,SSE,163,2.0,5.0,94,0.02,,,0.09,,2013-09-11 22:24:00,
2013-09-11 18:54:00,67.0,66.0,29.95,SE,134,0.0,5.0,95,0.03,,,0.10,,2013-09-11 22:54:00,
2013-09-11 19:12:00,68.0,66.0,29.94,North,1,2.0,3.0,93,0.02,,,0.10,,2013-09-11 23:12:00,
2013-09-11 19:22:00,67.0,66.0,29.95,SSE,165,3.0,6.0,96,0.01,,,0.10,,2013-09-11 23:22:00,
2013-09-11 19:42:00,67.0,66.0,29.95,SSE,159,2.0,3.0,96,0.00,,,0.10,,2013-09-11 23:42:00,
2013-09-11 19:53:00,67.0,66.0,29.94,NW,326,2.0,4.0,96,0.00,,,0.10,,2013-09-11 23:53:00,
2013-09-11 20:11:00,67.0,66.0,29.95,NNW,327,0.0,5.0,97,0.00,,,0.10,,2013-09-12 00:11:00,
2013-09-11 20:22:00,67.0,66.0,29.95,North,1,2.0,4.0,97,0.00,,,0.10,,2013-09-12 00:22:00,
2013-09-11 20:42:00,67.0,66.0,29.96,NNW,343,0.0,5.0,98,0.00,,,0.10,,2013-09-12 00:42:00,
2013-09-11 20:52:00,66.0,65.0,29.97,SE,145,0.0,1.0,98,0.00,,,0.10,,2013-09-12 00:52:00,
2013-09-11 21:11:00,66.0,65.0,29.98,SSE,150,0.0,0.0,98,0.00,,,0.10,,2013-09-12 01:11:00,
2013-09-11 21:22:00,66.0,65.0,30.01,ENE,72,4.0,8.0,98,0.00,,,0.10,,2013-09-12 01:22:00,
2013-09-11 21:42:00,66.0,65.0,30.00,NNW,344,0.0,2.0,98,0.00,,,0.10,,2013-09-12 01:42:00,
2013-09-11 21:52:00,66.0,65.0,29.99,NNW,330,0.0,3.0,98,0.00,,,0.10,,2013-09-12 01:52:00,
2013-09-11 22:12:00,66.0,65.0,29.99,NNW,330,0.0,1.0,98,0.00,,,0.10,,2013-09-12 02:12:00,
2013-09-11 22:22:00,66.0,65.0,29.99,NNW,340,2.0,3.0,98,0.00,,,0.10,,2013-09-12 02:22:00,
2013-09-11 23:11:00,66.0,66.0,29.98,SSE,147,0.0,2.0,99,0.00,,,0.10,,2013-09-12 03:11:00,
2013-09-11 23:22:00,66.0,66.0,29.97,SSE,167,2.0,4.0,99,0.00,,,0.10,,2013-09-12 03:22:00,
2013-09-11 23:45:00,66.0,66.0,29.96,SE,144,4.0,5.0,99,0.00,,,0.10,,2013-09-12 03:45:00,
2013-09-11 23:55:00,66.0,66.0,29.95,SSE,165,3.0,5.0,99,0.00,,,0.10,,2013-09-12 03:55:00,